Home > Products > Valid Products > TAF

000
FTUS45 KRIW 240900 AAB
TAFJAC
TAF AMD
KJAC 240916Z 2409/2506 25011KT P6SM VCSH SCT020 OVC040
      TEMPO 2410/2411 5SM -SN BKN020
     FM241100 26012G18KT 5SM -SN BLSN SCT025 BKN035
     FM241900 21010KT P6SM FEW020 SCT060
     FM250400 19007KT P6SM VCSH SCT030 BKN045
      AMD LTD TO CLD VIS AND WIND=



000
FTUS45 KRIW 240700 AAA
TAFJAC
TAF AMD
KJAC 240742Z 2408/2506 VRB06KT 3/4SM -SN OVC008
     FM240900 21009KT 2SM -SN SCT014 OVC020
     FM241100 26012G18KT 5SM -SN BLSN SCT025 BKN035
     FM241900 21010KT P6SM FEW020 SCT060
     FM250400 19007KT P6SM VCSH SCT030 BKN045
      AMD LTD TO CLD VIS AND WIND=



000
FTUS45 KRIW 240500
TAFBPI
TAF
KBPI 240539Z 2406/2506 VRB05KT P6SM SCT040 BKN070
     FM240900 33015G22KT P6SM VCSH SCT025 BKN040
      TEMPO 2410/2413 3SM -SN BKN018
     FM241600 34020G28KT P6SM SCT060
     FM250000 34009KT P6SM FEW060=



000
FTUS45 KRIW 240500
TAFLND
TAF
KLND 240539Z 2406/2506 VRB06KT P6SM SCT090
     FM241000 31010KT P6SM BKN090
     FM241600 31013G23KT P6SM SCT100
     FM242200 25007KT P6SM FEW100 SCT150=



000
FTUS45 KRIW 240500
TAFRIW
TAF
KRIW 240539Z 2406/2506 31020G28KT P6SM SCT080 BKN150
     FM240800 30018G26KT P6SM VCSH SCT050 OVC080
     FM241400 32020G30KT P6SM SCT080
     FM242200 30013G21KT P6SM FEW100=



000
FTUS45 KRIW 240500
TAFRKS
TAF
KRKS 240539Z 2406/2506 26024G32KT P6SM SCT060 BKN200
     FM241000 27028G35KT P6SM VCSH SCT015 BKN040
      TEMPO 2411/2414 2SM -SN BLSN BKN015
     FM241700 29022G30KT P6SM SCT060
     FM250100 26020G28KT P6SM SCT080=



000
FTUS45 KRIW 240500
TAFJAC
TAF
KJAC 240539Z 2406/2506 21009KT 2SM -SN SCT014 OVC020
     FM241100 26012G18KT 5SM -SN BLSN SCT025 BKN035
     FM241900 21010KT P6SM FEW020 SCT060
     FM250400 19007KT P6SM VCSH SCT030 BKN045
      AMD LTD TO CLD VIS AND WIND=



000
FTUS45 KRIW 240500
TAFWRL
TAF
KWRL 240539Z 2406/2506 VRB05KT P6SM VCSH SCT040 OVC070
     FM241500 34012KT P6SM SCT050 BKN090
     FM242000 34007KT P6SM SCT090
     FM250200 VRB06KT P6SM SCT090 BKN150=



000
FTUS45 KRIW 240500
TAFCPR
TAF
KCPR 240539Z 2406/2506 24009KT P6SM SCT080 BKN150
     FM241000 24011KT P6SM VCSH SCT040 BKN070
     FM241600 30014G24KT P6SM BKN080
     FM242300 24010KT P6SM SCT080=



000
FTUS45 KRIW 240500
TAFCOD
TAF
KCOD 240539Z 2406/2506 27012G20KT P6SM BKN090
     FM241000 30012G18KT P6SM VCSH BKN060
     FM242000 26008G15KT P6SM SCT080
     FM250300 26020G32KT P6SM BKN100
      AMD LTD TO CLD VIS AND WIND=



000
FTUS45 KRIW 232300
TAFRKS
TAF
KRKS 232320Z 2400/2424 31020G28KT P6SM VCSH SCT060
     FM240300 27022KT P6SM SCT030 BKN060
     FM240800 27024KT P6SM VCSH SCT015 BKN040
     FM241700 29023KT P6SM SCT030 BKN060=



000
FTUS45 KRIW 232300
TAFCPR
TAF
KCPR 232320Z 2400/2424 30012G21KT P6SM SCT080
     FM240200 27011KT P6SM FEW080 SCT150
     FM240900 23015KT P6SM SCT120=



000
FTUS45 KRIW 232300
TAFRIW
TAF
KRIW 232320Z 2400/2424 32014G24KT P6SM SCT080
     FM241600 32020G28KT P6SM SCT060 BKN150=



000
FTUS45 KRIW 232300
TAFBPI
TAF
KBPI 232320Z 2400/2424 34014G20KT P6SM FEW020 SCT050
     FM240400 34008KT P6SM SCT040 BKN070
     FM241000 33015G22KT P6SM VCSH SCT025 BKN040
     FM241900 34017G24KT P6SM SCT030 BKN070=



000
FTUS45 KRIW 232300
TAFLND
TAF
KLND 232320Z 2400/2424 31013G23KT P6SM SCT080
     FM240200 28010KT P6SM SCT120=



000
FTUS45 KRIW 232300
TAFJAC
TAF
KJAC 232320Z 2400/2424 19007KT P6SM VCSH SCT020 OVC040
      TEMPO 2401/2405 4SM -SN BKN020
     FM240500 20009KT 2SM -SN BR BKN015 OVC025
     FM241300 25010G18KT 5SM -SN SCT018 OVC030
     FM241900 23014KT P6SM SCT025 BKN050
      AMD LTD TO CLD VIS AND WIND=



000
FTUS45 KRIW 232300
TAFWRL
TAF
KWRL 232320Z 2400/2424 VRB06KT P6SM SCT080
     FM240300 VRB06KT P6SM SCT040 BKN080
     FM241500 34012KT P6SM SCT050 BKN090=



000
FTUS45 KRIW 232300
TAFCOD
TAF
KCOD 232320Z 2400/2424 30013G21KT P6SM SCT090
     FM240200 26010G18KT P6SM BKN090
     FM241000 30012G18KT P6SM VCSH BKN060
      AMD LTD TO CLD VIS AND WIND=



000
FTUS45 KRIW 231700
TAFRIW
TAF
KRIW 231730Z 2318/2418 34015G24KT P6SM FEW060 SCT100
     FM240000 30014G24KT P6SM SCT100=



000
FTUS45 KRIW 231700
TAFWRL
TAF
KWRL 231730Z 2318/2418 33011KT P6SM SCT080
     FM240100 VRB06KT P6SM SCT080=



000
FTUS45 KRIW 231700
TAFJAC
TAF
KJAC 231730Z 2318/2418 25015G25KT P6SM VCSH SCT020 BKN050
     FM240100 21008KT P6SM VCSH BKN040
     FM240600 20009KT 5SM -SN OVC030
      AMD LTD TO CLD VIS AND WIND=



000
FTUS45 KRIW 231700
TAFRKS
TAF
KRKS 231730Z 2318/2418 29022G30KT P6SM SCT040 BKN130
     FM240200 27022KT P6SM SCT090
     FM241000 27024KT P6SM SCT030 BKN060=



000
FTUS45 KRIW 231700
TAFCOD
TAF
KCOD 231730Z 2318/2418 30015G22KT P6SM SCT040 BKN090
     FM240100 26010G18KT P6SM BKN090
     FM241000 30012G18KT P6SM VCSH BKN060
      AMD LTD TO CLD VIS AND WIND=



000
FTUS45 KRIW 231700
TAFBPI
TAF
KBPI 231730Z 2318/2418 34018G26KT 5SM -SHSN SCT015 BKN040
     FM240100 34008KT P6SM SCT040 BKN060
     FM241100 33015KT P6SM BKN040=



000
FTUS45 KRIW 231700
TAFLND
TAF
KLND 231730Z 2318/2418 31013G23KT P6SM FEW050 SCT100
     FM240100 28010KT P6SM SCT100=



000
FTUS45 KRIW 231700
TAFCPR
TAF
KCPR 231730Z 2318/2418 30014G24KT P6SM VCSH SCT060 BKN100
     FM240200 27011KT P6SM SCT100
     FM240800 23015KT P6SM SCT120=



000
FTUS45 KRIW 231600 AAA
TAFBPI
TAF AMD
KBPI 231625Z 2316/2412 33023G32KT 2SM -SHSN SCT006 OVC015
     FM232000 34018G26KT 5SM -SHSN SCT015 BKN040
     FM240100 34008KT P6SM SCT040 BKN060
     FM241100 33015KT P6SM BKN040=



000
FTUS45 KRIW 231300 AAA
TAFJAC
TAF AMD
KJAC 231311Z 2313/2412 33013G19KT 3SM -SHSN SCT008 BKN025
     FM231400 34011KT P6SM VCSH SCT018 BKN030
     FM231600 25013KT P6SM VCSH SCT020 BKN050
     FM240100 21008KT P6SM VCSH BKN040
     FM240600 20009KT 5SM -SN OVC030
      AMD LTD TO CLD VIS AND WIND=



000
FTUS45 KRIW 231100
TAFCOD
TAF
KCOD 231127Z 2312/2412 28009KT P6SM VCSH BKN060
     FM231900 30015G22KT P6SM SCT040 BKN090
     FM240100 26010G18KT P6SM BKN090
     FM241000 30012G18KT P6SM VCSH BKN060
      AMD LTD TO CLD VIS AND WIND=



000
FTUS45 KRIW 231100
TAFRIW
TAF
KRIW 231127Z 2312/2412 30018G26KT P6SM SCT090
     FM231500 32023G33KT P6SM FEW060 SCT100
     FM240000 30014G24KT P6SM SCT100=



000
FTUS45 KRIW 231100
TAFRKS
TAF
KRKS 231127Z 2312/2412 27017G27KT P6SM VCSH SCT018 BKN030
     FM231600 29022G30KT P6SM FEW030 SCT060
     FM240200 27022KT P6SM SCT090
     FM241000 27024KT P6SM SCT030 BKN060=



000
FTUS45 KRIW 231100
TAFCPR
TAF
KCPR 231127Z 2312/2412 27009KT P6SM SCT090
     FM231700 30014G24KT P6SM VCSH SCT060 BKN100
     FM240200 27011KT P6SM SCT100
     FM240800 23015KT P6SM SCT120=



000
FTUS45 KRIW 231100
TAFWRL
TAF
KWRL 231127Z 2312/2412 VRB06KT P6SM SCT090
     FM231800 33011KT P6SM SCT080
     FM240100 VRB06KT P6SM SCT080=



000
FTUS45 KRIW 231100
TAFLND
TAF
KLND 231127Z 2312/2412 31007KT P6SM SCT090
     FM231600 31013G23KT P6SM FEW050 SCT100
     FM240100 28010KT P6SM SCT100=



000
FTUS45 KRIW 231100
TAFJAC
TAF
KJAC 231127Z 2312/2412 19008KT 2SM -SHSN SCT010 BKN018
     FM231300 17007KT P6SM VCSH SCT018 BKN030
     FM231600 25013KT P6SM VCSH SCT020 BKN050
     FM240100 21008KT P6SM VCSH BKN040
     FM240600 20009KT 5SM -SN OVC030
      AMD LTD TO CLD VIS AND WIND=



000
FTUS45 KRIW 231100
TAFBPI
TAF
KBPI 231127Z 2312/2412 33011KT P6SM VCSH SCT030 BKN050
     FM231500 33018G28KT P6SM SCT060
     FM240100 34008KT P6SM SCT040 BKN060
     FM241100 33015KT P6SM BKN040=



000
FTUS45 KRIW 230800 AAB
TAFWRL
TAF AMD
KWRL 230812Z 2308/2406 VRB06KT P6SM VCFG FEW002 SCT090
     FM230900 VRB06KT P6SM VCFG SCT090 BKN130
     FM231800 33011KT P6SM SCT080
     FM240100 VRB06KT P6SM SCT080=



000
FTUS45 KRIW 230700 AAA
TAFBPI
TAF AMD
KBPI 230720Z 2307/2406 33012KT P6SM VCSH SCT030 BKN060
      TEMPO 2307/2311 3SM -SHSN BKN030
     FM231500 33018G28KT P6SM SCT060
     FM240100 34008KT P6SM SCT040 BKN060=



000
FTUS45 KRIW 230700 AAA
TAFWRL
TAF AMD
KWRL 230719Z 2307/2406 VRB06KT 2SM BR SCT002 SCT090
      TEMPO 2307/2309 1/2SM FZFG BKN002
     FM230900 VRB06KT P6SM VCFG SCT090 BKN130
     FM231800 33011KT P6SM SCT080
     FM240100 VRB06KT P6SM SCT080=



000
FTUS45 KRIW 230500
TAFBPI
TAF
KBPI 230539Z 2306/2406 33012KT P6SM VCSH SCT030 BKN060
     FM231500 33018G28KT P6SM SCT060
     FM240100 34008KT P6SM SCT040 BKN060=



000
FTUS45 KRIW 230500
TAFWRL
TAF
KWRL 230539Z 2306/2406 VRB06KT P6SM SCT090
     FM231800 33011KT P6SM SCT080
     FM240100 VRB06KT P6SM SCT080=



000
FTUS45 KRIW 230500
TAFRKS
TAF
KRKS 230539Z 2306/2406 27022G32KT P6SM VCSH SCT040 BKN070
     FM231000 28017G27KT P6SM VCSH SCT018 BKN030
     FM231600 29022G30KT P6SM FEW030 SCT060
     FM240200 27022KT P6SM SCT090=



000
FTUS45 KRIW 230500
TAFRIW
TAF
KRIW 230539Z 2306/2406 30018G26KT P6SM SCT090
     FM231500 32023G33KT P6SM SCT100
     FM240000 30014G24KT P6SM SCT100=



000
FTUS45 KRIW 230500
TAFCOD
TAF
KCOD 230539Z 2306/2406 28009KT P6SM VCSH BKN060
     FM231900 30015G22KT P6SM SCT040 BKN090
     FM240100 26010G18KT P6SM BKN090
      AMD LTD TO CLD VIS AND WIND=



000
FTUS45 KRIW 230500
TAFJAC
TAF
KJAC 230539Z 2306/2406 19007KT P6SM VCSH SCT020 BKN060
     FM230800 19008KT 2SM -SHSN SCT010 BKN018
     FM231300 17007KT P6SM VCSH SCT018 BKN030
     FM231600 25013KT P6SM VCSH SCT020 BKN050
     FM240100 21008KT P6SM VCSH BKN040
      AMD LTD TO CLD VIS AND WIND=



000
FTUS45 KRIW 230500
TAFLND
TAF
KLND 230539Z 2306/2406 31007KT P6SM SCT090
     FM231600 31013G23KT P6SM SCT100
     FM240100 28010KT P6SM SCT100=



000
FTUS45 KRIW 230500
TAFCPR
TAF
KCPR 230539Z 2306/2406 27009KT P6SM SCT090
     FM231700 30014G24KT P6SM SCT100
     FM240200 27011KT P6SM SCT100=



000
FTUS45 KRIW 230300 AAA
TAFCPR
TAF AMD
KCPR 230352Z 2304/2324 32014G20KT P6SM VCSH SCT025 BKN040
     FM230600 28011KT P6SM SCT050 BKN090
     FM231800 30012G20KT P6SM SCT070 BKN120=



000
FTUS45 KRIW 230200 AAA
TAFCOD
TAF AMD
KCOD 230202Z 2302/2324 28013G23KT P6SM FEW030 SCT070
     FM231100 28009KT P6SM VCSH BKN050
     FM231900 32015G22KT P6SM SCT040 BKN090
      AMD LTD TO CLD VIS AND WIND=



000
FTUS45 KRIW 230100 AAA
TAFJAC
TAF AMD
KJAC 230136Z 2302/2324 19007KT P6SM VCSH SCT020 SCT060
     FM230800 19008KT 2SM -SHSN SCT010 BKN018
     FM231300 17007KT P6SM VCSH SCT018 BKN030
     FM231600 21016KT P6SM VCSH SCT020 BKN050
      AMD LTD TO CLD VIS AND WIND=



000
FTUS45 KRIW 230000 AAA
TAFRIW
TAF AMD
KRIW 230039Z 2301/2324 27014G20KT P6SM SCT060 BKN090
     FM230130 30027G35KT 2SM -SHSN SCT018 OVC030
     FM230230 30018G26KT P6SM VCSH SCT030 BKN060
     FM231700 32018G26KT P6SM SCT070 BKN140=



000
FTUS45 KRIW 222300
TAFWRL
TAF
KWRL 222335Z 2300/2324 VRB06KT P6SM VCSH SCT090 BKN120
     FM230100 34011KT P6SM VCSH SCT050 BKN080
     FM230900 35008KT P6SM BKN090=



000
FTUS45 KRIW 222300
TAFRKS
TAF
KRKS 222335Z 2300/2324 24014G24KT 6SM -SHRASN SCT020 BKN035
     FM230030 26020G30KT 2SM -SHSN BLSN SCT008 OVC015
     FM230230 27025G35KT 4SM -SHSN BKN018
     FM231200 28022G30KT P6SM VCSH SCT018 BKN030
     FM231600 32022G30KT P6SM SCT030 BKN080=



000
FTUS45 KRIW 222300
TAFCOD
TAF
KCOD 222335Z 2300/2324 28017G27KT P6SM VCSH SCT018 BKN030
     FM230400 27015G25KT P6SM SCT060
     FM230900 28009KT P6SM VCSH BKN050
     FM231900 32015G22KT P6SM SCT040 BKN090
      AMD LTD TO CLD VIS AND WIND=



000
FTUS45 KRIW 222300
TAFBPI
TAF
KBPI 222335Z 2300/2324 28011KT P6SM VCSH SCT030 BKN050
     FM230200 30015G27KT 4SM -SHSN SCT012 BKN025
     FM230400 33012KT P6SM VCSH SCT015 BKN045
     FM231500 32022G30KT P6SM VCSH SCT020 BKN050
     FM231900 34020G28KT P6SM SCT030 BKN080=



000
FTUS45 KRIW 222300
TAFCPR
TAF
KCPR 222335Z 2300/2324 22030G38KT P6SM VCSH SCT040 BKN080
     FM230200 24025G35KT P6SM VCSH SCT015 BKN040
     FM230500 28020G30KT P6SM VCSH SCT015 BKN030
     FM231000 24015G25KT P6SM SCT050 BKN090
     FM231800 30012G20KT P6SM SCT070 BKN120=



000
FTUS45 KRIW 222300
TAFRIW
TAF
KRIW 222335Z 2300/2324 27014G20KT P6SM SCT060 BKN090
     FM230200 30027G35KT P6SM VCSH SCT040 BKN070
     FM230900 30022G30KT P6SM VCSH SCT060 BKN090
     FM231700 32018G26KT P6SM SCT070 BKN140=



000
FTUS45 KRIW 222300
TAFLND
TAF
KLND 222335Z 2300/2324 27010G18KT P6SM VCSH SCT050 BKN080
      WS020/27035KT
     FM230200 28015G25KT P6SM VCSH SCT020 BKN050
     FM230700 26009KT P6SM SCT050 BKN100
     FM231600 31013G23KT P6SM SCT110=



000
FTUS45 KRIW 222300
TAFJAC
TAF
KJAC 222335Z 2300/2324 18017G25KT 1SM -SHSN BLSN OVC008
     FM230030 24014G20KT 4SM -SHSN SCT008 BKN020
     FM230700 19008KT 2SM -SHSN SCT008 OVC015
     FM231300 17007KT P6SM VCSH SCT015 BKN030
     FM231600 21016KT P6SM VCSH SCT020 BKN050
      AMD LTD TO CLD VIS AND WIND=



000
FTUS45 KRIW 221800 AAA
TAFRKS
TAF AMD
KRKS 221854Z 2219/2318 20016KT 1SM -SN BLSN SCT008 OVC015
      WS015/26040KT
     FM222300 25018G28KT 2SM -SN SCT009 BKN018
     FM230300 27025G35KT 2SM -SN BLSN SCT008 OVC015
     FM231200 27022G30KT 5SM -SHSN BKN018=



000
FTUS45 KRIW 221700
TAFRIW
TAF
KRIW 221720Z 2218/2318 21008KT P6SM SCT080 BKN150 WS020/26035KT
     FM230100 30028G40KT P6SM VCSH SCT040 BKN070
     FM230900 30022G30KT P6SM VCSH SCT060 BKN090=



000
FTUS45 KRIW 221700
TAFBPI
TAF
KBPI 221720Z 2218/2318 08008KT 2SM -SN SCT012 OVC020 WS020/25045KT
     FM230200 30015G27KT P6SM -SN SCT025 BKN035
     FM230900 32012KT P6SM VCSH SCT015 BKN045
     FM231500 32022G30KT P6SM VCSH SCT020 BKN050=



000
FTUS45 KRIW 221700
TAFWRL
TAF
KWRL 221720Z 2218/2318 17008KT P6SM SCT150 BKN200 WS020/25040KT
     FM222300 18011KT P6SM VCSH SCT080 BKN100
     FM230400 32012G20KT P6SM VCSH SCT050 BKN080
     FM230900 35008KT P6SM BKN090=



000
FTUS45 KRIW 221700
TAFJAC
TAF
KJAC 221720Z 2218/2318 20014KT 1 1/2SM -SN SCT008 OVC012
      WS020/24040KT
      TEMPO 2218/2221 3/4SM -SN SCT003 OVC006
     FM222100 23018G30KT 1SM -SN BLSN OVC008
     FM230300 24014G20KT 2SM -SHSN SCT008 OVC015
      AMD LTD TO CLD VIS AND WIND=



000
FTUS45 KRIW 221700
TAFCPR
TAF
KCPR 221720Z 2218/2318 22030G42KT P6SM VCSH SCT040 BKN080
     FM230200 24025G35KT P6SM VCSH SCT015 BKN040
     FM230500 28020G30KT P6SM VCSH SCT015 BKN030
     FM231000 24015G25KT P6SM SCT050 BKN090=



000
FTUS45 KRIW 221700
TAFLND
TAF
KLND 221720Z 2218/2318 24010KT P6SM VCSH SCT040 BKN080
      WS020/25045KT
     FM222300 26020G32KT P6SM VCSH SCT035 BKN070
     FM230300 28015G25KT P6SM VCSH SCT020 BKN050
     FM230900 26009KT P6SM SCT050 BKN100=



000
FTUS45 KRIW 221700
TAFRKS
TAF
KRKS 221720Z 2218/2318 20016KT P6SM BKN080 WS015/26040KT
     FM222100 25018G28KT 3SM -SN SCT012 BKN020
     FM230100 27025G35KT 2SM -SN BLSN SCT008 OVC015
     FM231000 27022G30KT 5SM -SHSN BKN018=



000
FTUS45 KRIW 221700
TAFCOD
TAF
KCOD 221720Z 2218/2318 24020G32KT P6SM VCSH SCT030 OVC070
      WS017/25040KT
     FM222300 25020G32KT P6SM VCSH BKN060
     FM230400 28014G20KT P6SM SCT060
     FM230900 28009KT P6SM VCSH BKN050
      AMD LTD TO CLD VIS AND WIND=



000
FTUS45 KRIW 221400 AAB
TAFJAC
TAF AMD
KJAC 221449Z 2215/2312 20014KT 1 1/2SM -SN SCT008 OVC012
      WS020/24040KT
      TEMPO 2215/2218 3/4SM -SN SCT003 OVC006
     FM222100 23018G30KT 1SM -SN BLSN OVC008
     FM230200 24014G20KT 2SM -SHSN SCT008 OVC015
      AMD LTD TO CLD VIS AND WIND=



000
FTUS45 KRIW 221300 AAA
TAFCOD
TAF AMD
KCOD 221344Z 2214/2312 24020G32KT P6SM SCT060 OVC100 WS017/25040KT
     FM221800 25020G32KT P6SM VCSH BKN060
     FM230200 28014G20KT P6SM SCT060
     FM230900 28009KT P6SM VCSH BKN050
      AMD LTD TO CLD VIS AND WIND=



000
FTUS45 KRIW 221300 AAA
TAFJAC
TAF AMD
KJAC 221343Z 2214/2312 20014KT 1 1/2SM -SN SCT008 OVC012
      WS020/24040KT
      TEMPO 2214/2215 3/4SM -SN SCT004 OVC008
     FM222100 23018G30KT 1SM -SN BLSN OVC008
     FM230200 24014G20KT 2SM -SHSN SCT008 OVC015
      AMD LTD TO CLD VIS AND WIND=



000
FTUS45 KRIW 221100
TAFCPR
TAF
KCPR 221122Z 2212/2312 23022G34KT P6SM SCT110 BKN200
     FM221500 22030G42KT P6SM SCT070 BKN150
     FM230200 24025G35KT P6SM VCSH SCT040 BKN070
     FM230500 28020G30KT P6SM VCSH BKN040
     FM230800 24015G25KT P6SM SCT050 BKN090=



000
FTUS45 KRIW 221100
TAFJAC
TAF
KJAC 221122Z 2212/2312 19011KT 3SM -SN SCT015 OVC030 WS020/23030KT
     FM221400 18014KT 1 1/2SM -SN OVC012 WS020/24040KT
     FM222100 23018G30KT 1SM -SN BLSN OVC008
     FM230200 24014G20KT 2SM -SHSN SCT008 OVC015
      AMD LTD TO CLD VIS AND WIND=



000
FTUS45 KRIW 221100
TAFRKS
TAF
KRKS 221122Z 2212/2312 24016KT P6SM BKN080 WS015/26040KT
     FM222100 25018G28KT 3SM -SN SCT014 BKN020
     FM230100 27025G35KT 2SM -SN BLSN SCT008 OVC015
     FM230500 27022G30KT 5SM -SHSN BKN018=



000
FTUS45 KRIW 221100
TAFRIW
TAF
KRIW 221122Z 2212/2312 21008KT P6SM SCT110 BKN200 WS020/26030KT
     FM222200 25011KT P6SM BKN100
     FM230100 30028G40KT P6SM VCSH SCT070 BKN100
     FM230400 30020G30KT P6SM VCSH SCT070 BKN100=



000
FTUS45 KRIW 221100
TAFLND
TAF
KLND 221122Z 2212/2312 24010KT P6SM SCT110 BKN200 WS020/25045KT
     FM222100 26020G32KT P6SM VCSH SCT060 BKN100
     FM230100 28015G25KT P6SM VCSH SCT060
     FM230700 26009KT P6SM SCT080=



000
FTUS45 KRIW 221100
TAFWRL
TAF
KWRL 221122Z 2212/2312 17008KT P6SM SCT150 BKN200 WS020/25030KT
     FM222000 18011KT P6SM VCSH SCT080 BKN100
     FM230200 32012G20KT P6SM VCSH SCT050 BKN080
     FM230500 35008KT P6SM BKN090=



000
FTUS45 KRIW 221100
TAFBPI
TAF
KBPI 221122Z 2212/2312 28007KT P6SM VCSH SCT040 BKN070
      WS020/26030KT
     FM221400 VRB06KT 3SM -SN SCT015 OVC025 WS020/25045KT
     FM222200 30015G27KT P6SM -SN SCT025 BKN035
     FM230500 32012KT P6SM VCSH BKN045=



000
FTUS45 KRIW 221100
TAFCOD
TAF
KCOD 221122Z 2212/2312 24016G26KT P6SM SCT060 OVC100 WS017/25040KT
     FM221800 25020G32KT P6SM VCSH BKN060
     FM230200 28014G20KT P6SM SCT060
     FM230900 28009KT P6SM VCSH BKN050
      AMD LTD TO CLD VIS AND WIND=



000
FTUS45 KRIW 220900 AAA
TAFJAC
TAF AMD
KJAC 220905Z 2209/2306 19008KT P6SM SCT040 BKN060
     FM221000 19011KT 3SM -SN SCT015 OVC030 WS020/23030KT
     FM221400 18014KT 2SM -SN OVC015 WS020/24040KT
     FM222100 23018G30KT 1SM -SN BLSN OVC008
     FM230200 24014G20KT 2SM -SHSN SCT008 OVC015
      AMD LTD TO CLD VIS AND WIND=



000
FTUS45 KRIW 220500
TAFRIW
TAF
KRIW 220540Z 2206/2306 21007KT P6SM SCT200
     FM221100 21008KT P6SM SCT110 BKN200 WS020/26030KT
     FM222200 25011KT P6SM BKN100
     FM230100 30020G30KT P6SM VCSH SCT070 BKN100=



000
FTUS45 KRIW 220500
TAFWRL
TAF
KWRL 220540Z 2206/2306 VRB05KT P6SM SCT200
     FM221000 17008KT P6SM SCT150 BKN200 WS020/25030KT
     FM222000 18011KT P6SM VCSH SCT080 BKN100
     FM230200 32012G20KT P6SM VCSH SCT050 BKN080
     FM230500 35008KT P6SM BKN090=



000
FTUS45 KRIW 220500
TAFRKS
TAF
KRKS 220540Z 2206/2306 25014KT P6SM SCT080 BKN200
     FM220800 24015KT P6SM BKN080 WS015/26040KT
     FM222100 25018G28KT 3SM -SN SCT014 BKN020
     FM230100 27025G35KT 2SM -SN BLSN SCT008 OVC015
     FM230500 27022G30KT 5SM -SHSN BKN018=



000
FTUS45 KRIW 220500
TAFCPR
TAF
KCPR 220540Z 2206/2306 23014G20KT P6SM FEW200
     FM220900 23020G30KT P6SM SCT110 BKN200
     FM221500 22030G40KT P6SM SCT070 BKN150
     FM230200 24025G35KT P6SM VCSH SCT040 BKN070
     FM230500 28020G30KT P6SM VCSH BKN040=



000
FTUS45 KRIW 220500
TAFLND
TAF
KLND 220540Z 2206/2306 34007KT P6SM SCT200 WS020/25035KT
     FM221000 24010KT P6SM SCT110 BKN200 WS020/25045KT
     FM222100 26017G27KT P6SM VCSH SCT060 BKN100
     FM230100 28015G25KT P6SM VCSH SCT060=



000
FTUS45 KRIW 220500
TAFJAC
TAF
KJAC 220540Z 2206/2306 19008KT P6SM SCT060 BKN090
     FM220900 19011KT 3SM -SN SCT015 OVC030 WS020/23030KT
     FM221400 18014KT 2SM -SN OVC015 WS020/24040KT
     FM222100 23018G30KT 1SM -SN BLSN OVC008
     FM230200 24014G20KT 2SM -SHSN SCT008 OVC015
      AMD LTD TO CLD VIS AND WIND=



000
FTUS45 KRIW 220500
TAFCOD
TAF
KCOD 220540Z 2206/2306 21010KT P6SM SCT090 BKN150
     FM220900 22011KT P6SM SCT080 OVC150 WS017/25040KT
     FM221600 22011KT P6SM SCT060 BKN100
     FM221800 25018G28KT P6SM VCSH BKN060
     FM230200 28014G20KT P6SM SCT060
      AMD LTD TO CLD VIS AND WIND=



000
FTUS45 KRIW 220500
TAFBPI
TAF
KBPI 220540Z 2206/2306 VRB06KT P6SM SCT080 BKN200
     FM220900 28007KT P6SM VCSH SCT040 BKN070 WS020/26030KT
     FM221400 VRB06KT 3SM -SN SCT015 OVC025 WS020/25045KT
     FM222200 30015G27KT P6SM -SN SCT025 BKN035
     FM230500 32012KT P6SM VCSH BKN045=



000
FTUS45 KRIW 212300
TAFWRL
TAF
KWRL 212324Z 2200/2224 VRB05KT P6SM SCT200
     FM220900 17008KT P6SM SCT150 BKN200 WS020/25030KT
     FM222000 28011KT P6SM VCSH SCT080 BKN100=



000
FTUS45 KRIW 212300
TAFRKS
TAF
KRKS 212324Z 2200/2224 25011KT P6SM SCT200
     FM220800 24015KT P6SM SCT050 BKN150 WS015/26040KT
     FM222100 25015G25KT 5SM -SN SCT015 BKN025=



000
FTUS45 KRIW 212300
TAFCOD
TAF
KCOD 212324Z 2200/2224 24010KT P6SM SCT090 BKN150
     FM220900 22011KT P6SM SCT080 OVC150 WS017/25040KT
     FM221600 22011KT P6SM VCSH SCT040 BKN080
     FM222200 30011KT P6SM SCT060 BKN100
      AMD LTD TO CLD VIS AND WIND=



000
FTUS45 KRIW 212300
TAFRIW
TAF
KRIW 212324Z 2200/2224 23007KT P6SM SCT200
     FM220800 21008KT P6SM SCT150 BKN200 WS020/26030KT
     FM221400 VRB05KT P6SM SCT070 BKN100
     FM221900 VRB06KT P6SM VCSH SCT040 BKN050=



000
FTUS45 KRIW 212300
TAFLND
TAF
KLND 212324Z 2200/2224 25007KT P6SM FEW140 SCT200
     FM220500 24007KT P6SM SCT140 BKN200 WS020/25040KT
     FM220900 24010KT P6SM SCT050 BKN080 WS020/25055KT
     FM222000 26012G20KT P6SM VCSH SCT060 BKN100=



000
FTUS45 KRIW 212300
TAFJAC
TAF
KJAC 212324Z 2200/2224 VRB05KT P6SM FEW050 SCT200
     FM220400 19010KT P6SM SCT030 BKN060
     FM220900 19013KT 2SM -SN BR OVC015 WS020/23035KT
      AMD LTD TO CLD VIS AND WIND=



000
FTUS45 KRIW 212300
TAFBPI
TAF
KBPI 212324Z 2200/2224 VRB05KT P6SM SCT200
     FM220900 VRB05KT P6SM VCSH SCT020 OVC035 WS020/26030KT
     FM221400 VRB05KT 5SM -SN SCT015 OVC025 WS020/25045KT
     FM222200 28012KT P6SM -SN SCT025 BKN035=



000
FTUS45 KRIW 212300
TAFCPR
TAF
KCPR 212324Z 2200/2224 23014G20KT P6SM FEW200
     FM220800 23017G27KT P6SM SCT150 BKN200
     FM221300 22025G35KT P6SM SCT050 BKN070
     FM221700 22035G50KT P6SM SCT035 BKN050=



000
FTUS45 KRIW 211700
TAFRKS
TAF
KRKS 211721Z 2118/2218 25009KT P6SM SCT200
     FM220800 24015KT P6SM SCT050 BKN150 WS015/26040KT=



000
FTUS45 KRIW 211700
TAFWRL
TAF
KWRL 211721Z 2118/2218 VRB04KT P6SM FEW120 SCT200
     FM212000 15007KT P6SM SCT200
     FM220900 17008KT P6SM SCT150 BKN200 WS020/25030KT=



000
FTUS45 KRIW 211700
TAFRIW
TAF
KRIW 211721Z 2118/2218 24007KT P6SM SCT200
     FM220800 21008KT P6SM SCT150 BKN200 WS020/26030KT
     FM221400 VRB05KT P6SM SCT070 BKN100=



000
FTUS45 KRIW 211700
TAFCPR
TAF
KCPR 211721Z 2118/2218 22018G28KT P6SM FEW150 SCT200
     FM221300 22025G35KT P6SM SCT050 BKN070=



000
FTUS45 KRIW 211700
TAFLND
TAF
KLND 211721Z 2118/2218 VRB05KT P6SM SCT200
     FM220200 24008KT P6SM FEW140 SCT200
     FM220500 24007KT P6SM SCT140 BKN200 WS020/25040KT
     FM220900 24010KT P6SM SCT050 BKN080 WS020/25055KT=



000
FTUS45 KRIW 211700
TAFCOD
TAF
KCOD 211721Z 2118/2218 25012G22KT P6SM SCT090 BKN150
     FM220900 22011KT P6SM SCT080 OVC150 WS017/25040KT
     FM221600 22011KT P6SM SCT040 BKN080
      AMD LTD TO CLD VIS AND WIND=



000
FTUS45 KRIW 211700
TAFJAC
TAF
KJAC 211721Z 2118/2218 19006KT P6SM SCT025 BKN040
     FM220200 19010KT P6SM SCT030 BKN060
     FM220900 19013KT 2SM -SN OVC015 WS020/23035KT
      AMD LTD TO CLD VIS AND WIND=



000
FTUS45 KRIW 211700
TAFBPI
TAF
KBPI 211721Z 2118/2218 VRB05KT P6SM FEW020 SCT200
     FM220900 VRB05KT P6SM VCSH SCT020 OVC035 WS020/26030KT
     FM221400 VRB05KT 5SM -SN SCT015 OVC025 WS020/25045KT=



000
FTUS45 KRIW 211100
TAFJAC
TAF
KJAC 211127Z 2112/2212 VRB05KT P6SM -SN SCT020 BKN035
     FM211800 19006KT P6SM SCT025 BKN040
     FM220200 19010KT P6SM SCT030 BKN060
     FM220900 19013KT 2SM -SN OVC015 WS020/23030KT
      AMD LTD TO CLD VIS AND WIND=



000
FTUS45 KRIW 211100
TAFLND
TAF
KLND 211127Z 2112/2212 VRB05KT P6SM SCT200
     FM220200 24008KT P6SM FEW140 SCT200
     FM220800 24007KT P6SM SCT140 BKN200 WS020/25040KT=



000
FTUS45 KRIW 211100
TAFRIW
TAF
KRIW 211127Z 2112/2212 24007KT P6SM SCT200
     FM220800 21008KT P6SM SCT150 BKN200 WS020/26030KT=



000
FTUS45 KRIW 211100
TAFWRL
TAF
KWRL 211127Z 2112/2212 VRB04KT P6SM FEW120 SCT200
     FM212000 15007KT P6SM SCT200
     FM220900 17008KT P6SM SCT150 BKN200 WS020/25030KT=



000
FTUS45 KRIW 211100
TAFCOD
TAF
KCOD 211127Z 2112/2212 27010G18KT P6SM FEW080 SCT200
     FM211700 17008KT P6SM SCT090 BKN150
     FM220900 22011KT P6SM SCT080 OVC150 WS017/25040KT
      AMD LTD TO CLD VIS AND WIND=



000
FTUS45 KRIW 211100
TAFCPR
TAF
KCPR 211127Z 2112/2212 25014G22KT P6SM SCT200
     FM211600 22018G28KT P6SM FEW150 SCT200=



000
FTUS45 KRIW 211100
TAFRKS
TAF
KRKS 211127Z 2112/2212 23010KT P6SM FEW080 SCT200
     FM211300 22006KT P6SM VCFG FEW005
     FM211800 25009KT P6SM SCT200
     FM220900 24015KT P6SM SCT050 BKN150 WS015/26040KT=



000
FTUS45 KRIW 211100
TAFBPI
TAF
KBPI 211127Z 2112/2212 VRB05KT P6SM FEW020 SCT200
     FM221000 VRB05KT 4SM -SN SCT020 OVC030 WS020/26030KT=



    US Dept of Commerce
    National Oceanic and Atmospheric Administration
    National Weather Service
    1325 East West Highway
    Silver Spring, MD 20910
    Page Author: NWS Internet Services Team
Disclaimer
Information Quality
Credits
Glossary
Privacy Policy
Freedom of Information Act (FOIA)
About Us
Career Opportunities